createdAt,value
2018-10-16T03:09:56.644Z,1010.12
2018-10-16T03:10:56.574Z,1010.13
2018-10-16T03:11:56.624Z,1010.14
2018-10-16T03:12:56.560Z,1010.16
2018-10-16T03:13:56.558Z,1010.22
2018-10-16T03:14:56.551Z,1010.19
2018-10-16T03:15:56.546Z,1010.17
2018-10-16T03:16:56.538Z,1010.22
2018-10-16T03:17:56.558Z,1010.21
2018-10-16T03:18:56.528Z,1010.24
2018-10-16T03:19:56.529Z,1010.21
2018-10-16T03:20:56.523Z,1010.21
2018-10-16T03:21:56.519Z,1010.23
2018-10-16T03:22:56.515Z,1010.20
2018-10-16T03:23:56.505Z,1010.24
2018-10-16T03:24:56.502Z,1010.28
2018-10-16T03:25:56.507Z,1010.26
2018-10-16T03:26:56.497Z,1010.25
2018-10-16T03:27:56.490Z,1010.23
2018-10-16T03:28:56.482Z,1010.23
2018-10-16T03:29:56.480Z,1010.23
2018-10-16T03:30:56.473Z,1010.22
2018-10-16T03:31:56.472Z,1010.21
2018-10-16T03:32:56.463Z,1010.28
2018-10-16T03:33:56.468Z,1010.26
2018-10-16T03:34:56.453Z,1010.24
2018-10-16T03:35:56.456Z,1010.25
2018-10-16T03:36:56.450Z,1010.27
2018-10-16T03:37:56.445Z,1010.29
2018-10-16T03:38:56.439Z,1010.27
2018-10-16T03:39:56.432Z,1010.34
2018-10-16T03:40:56.464Z,1010.33
2018-10-16T03:41:56.427Z,1010.37
2018-10-16T03:42:56.421Z,1010.34
2018-10-16T03:43:56.417Z,1010.35
2018-10-16T03:44:56.411Z,1010.35
2018-10-16T03:45:56.408Z,1010.35
2018-10-16T03:46:56.406Z,1010.35
2018-10-16T03:47:56.413Z,1010.37
2018-10-16T03:48:56.390Z,1010.35
2018-10-16T03:49:56.392Z,1010.33
2018-10-16T03:50:56.388Z,1010.37
2018-10-16T03:51:56.378Z,1010.39
2018-10-16T03:52:56.377Z,1010.38
2018-10-16T03:53:56.377Z,1010.38
2018-10-16T03:54:56.366Z,1010.38
2018-10-16T03:55:56.364Z,1010.39
2018-10-16T03:56:56.361Z,1010.40
2018-10-16T03:57:56.354Z,1010.45
2018-10-16T03:58:56.351Z,1010.43
2018-10-16T03:59:56.344Z,1010.46
2018-10-16T04:00:56.337Z,1010.43
2018-10-16T04:01:56.360Z,1010.48
2018-10-16T04:02:56.330Z,1010.47
2018-10-16T04:03:56.341Z,1010.49
2018-10-16T04:04:56.325Z,1010.50
2018-10-16T04:05:56.327Z,1010.48
2018-10-16T04:06:56.313Z,1010.49
2018-10-16T04:07:56.309Z,1010.50
2018-10-16T04:08:56.304Z,1010.50
2018-10-16T04:09:56.301Z,1010.51
2018-10-16T04:10:56.297Z,1010.48
2018-10-16T04:11:56.295Z,1010.49
2018-10-16T04:12:56.302Z,1010.50
2018-10-16T04:13:56.339Z,1010.49
2018-10-16T04:14:56.276Z,1010.50
2018-10-16T04:15:56.276Z,1010.49
2018-10-16T04:16:56.268Z,1010.49
2018-10-16T04:17:56.269Z,1010.53
2018-10-16T04:18:56.261Z,1010.50
2018-10-16T04:19:56.261Z,1010.49
2018-10-16T04:20:56.248Z,1010.52
2018-10-16T04:21:56.247Z,1010.49
2018-10-16T04:22:56.343Z,1010.51
2018-10-16T04:23:56.237Z,1010.50
2018-10-16T04:24:56.232Z,1010.52
2018-10-16T04:25:56.231Z,1010.53
2018-10-16T04:26:56.226Z,1010.50
2018-10-16T04:27:56.222Z,1010.53
2018-10-16T04:28:56.220Z,1010.50
2018-10-16T04:29:56.231Z,1010.51
2018-10-16T04:30:56.239Z,1010.50
2018-10-16T04:31:56.206Z,1010.50
2018-10-16T04:32:56.200Z,1010.50
2018-10-16T04:33:56.196Z,1010.53
2018-10-16T04:34:56.191Z,1010.52
2018-10-16T04:35:56.186Z,1010.52
2018-10-16T04:36:56.175Z,1010.55
2018-10-16T04:37:56.175Z,1010.53
2018-10-16T04:38:56.191Z,1010.53
2018-10-16T04:39:56.166Z,1010.54
2018-10-16T04:40:56.163Z,1010.54
2018-10-16T04:41:56.154Z,1010.52
2018-10-16T04:42:56.154Z,1010.53
2018-10-16T04:43:56.151Z,1010.52
2018-10-16T04:44:57.814Z,1010.54
2018-10-16T04:45:56.138Z,1010.54
2018-10-16T04:46:56.153Z,1010.57
2018-10-16T04:47:56.133Z,1010.55
2018-10-16T04:48:56.151Z,1010.57
2018-10-16T04:49:56.120Z,1010.56
2018-10-16T04:50:56.115Z,1010.59
2018-10-16T04:51:56.110Z,1010.62
2018-10-16T04:52:56.109Z,1010.62
2018-10-16T04:53:56.105Z,1010.63
2018-10-16T04:54:56.149Z,1010.65
2018-10-16T04:55:56.095Z,1010.65
2018-10-16T04:56:56.102Z,1010.61
2018-10-16T04:57:56.091Z,1010.64
2018-10-16T04:58:56.085Z,1010.65
2018-10-16T04:59:56.079Z,1010.66
2018-10-16T05:00:56.071Z,1010.65
2018-10-16T05:01:56.069Z,1010.64
2018-10-16T05:02:56.063Z,1010.65
2018-10-16T05:03:56.093Z,1010.61
2018-10-16T05:04:56.050Z,1010.64
2018-10-16T05:05:56.050Z,1010.61
2018-10-16T05:06:56.062Z,1010.63
2018-10-16T05:07:56.039Z,1010.63
2018-10-16T05:08:56.035Z,1010.59
2018-10-16T05:09:56.055Z,1010.62
2018-10-16T05:10:56.025Z,1010.61
2018-10-16T05:11:56.023Z,1010.64
2018-10-16T05:12:56.049Z,1010.65
2018-10-16T05:13:56.013Z,1010.63
2018-10-16T05:14:56.022Z,1010.70
2018-10-16T05:15:56.030Z,1010.64
2018-10-16T05:16:56.007Z,1010.72
2018-10-16T05:17:55.996Z,1010.68
2018-10-16T05:18:56.017Z,1010.67
2018-10-16T05:19:55.993Z,1010.71
2018-10-16T05:20:55.979Z,1010.70
2018-10-16T05:21:55.976Z,1010.73
2018-10-16T05:22:55.976Z,1010.71
2018-10-16T05:23:55.972Z,1010.72
2018-10-16T05:24:56.005Z,1010.72
2018-10-16T05:25:55.958Z,1010.72
2018-10-16T05:26:55.951Z,1010.73
2018-10-16T05:27:55.959Z,1010.74
2018-10-16T05:28:55.947Z,1010.74
2018-10-16T05:29:55.942Z,1010.77
2018-10-16T05:30:55.974Z,1010.78
2018-10-16T05:31:55.931Z,1010.73
2018-10-16T05:32:55.926Z,1010.76
2018-10-16T05:33:55.938Z,1010.80
2018-10-16T05:34:56.837Z,1010.76
2018-10-16T05:35:55.908Z,1010.81
2018-10-16T05:36:55.908Z,1010.80
2018-10-16T05:37:55.909Z,1010.83
2018-10-16T05:38:55.901Z,1010.82
2018-10-16T05:39:55.908Z,1010.84
2018-10-16T05:40:55.892Z,1010.86
2018-10-16T05:41:55.881Z,1010.85
2018-10-16T05:42:55.887Z,1010.86
2018-10-16T05:43:55.882Z,1010.89
2018-10-16T05:44:55.871Z,1010.87
2018-10-16T05:45:55.868Z,1010.88
2018-10-16T05:46:55.860Z,1010.90
2018-10-16T05:47:55.854Z,1010.90
2018-10-16T05:48:55.854Z,1010.94
2018-10-16T05:49:55.846Z,1010.92
2018-10-16T05:50:55.846Z,1010.96
2018-10-16T05:51:55.857Z,1010.98
2018-10-16T05:52:55.832Z,1010.96
2018-10-16T05:53:55.826Z,1010.99
2018-10-16T05:54:55.832Z,1011.04
2018-10-16T05:55:55.818Z,1011.05
2018-10-16T05:56:56.354Z,1011.03
2018-10-16T05:57:55.805Z,1011.07
2018-10-16T05:58:55.804Z,1011.09
2018-10-16T05:59:55.804Z,1011.09
2018-10-16T06:00:55.812Z,1011.07
2018-10-16T06:01:55.789Z,1011.07
2018-10-16T06:02:55.797Z,1011.09
2018-10-16T06:03:55.781Z,1011.08
2018-10-16T06:04:55.781Z,1011.08
2018-10-16T06:05:55.769Z,1011.08
2018-10-16T06:06:55.767Z,1011.07
2018-10-16T06:07:55.761Z,1011.09
2018-10-16T06:08:55.757Z,1011.09
2018-10-16T06:09:55.765Z,1011.09
2018-10-16T06:10:55.822Z,1011.11
2018-10-16T06:11:55.744Z,1011.10
2018-10-16T06:12:55.742Z,1011.13
2018-10-16T06:13:55.737Z,1011.15
2018-10-16T06:14:55.734Z,1011.15
2018-10-16T06:15:55.778Z,1011.20
2018-10-16T06:16:55.743Z,1011.19
2018-10-16T06:17:55.712Z,1011.20
2018-10-16T06:18:55.714Z,1011.21
2018-10-16T06:19:55.709Z,1011.22
2018-10-16T06:20:55.703Z,1011.23
2018-10-16T06:21:55.701Z,1011.26
2018-10-16T06:22:55.699Z,1011.28
2018-10-16T06:23:55.683Z,1011.25
2018-10-16T06:24:55.690Z,1011.26
2018-10-16T06:25:55.682Z,1011.23
2018-10-16T06:26:55.673Z,1011.23
2018-10-16T06:27:55.699Z,1011.25
2018-10-16T06:28:55.665Z,1011.26
2018-10-16T06:29:55.658Z,1011.22
2018-10-16T06:30:55.652Z,1011.23
2018-10-16T06:31:55.658Z,1011.25
2018-10-16T06:32:55.648Z,1011.25
2018-10-16T06:33:55.677Z,1011.29
2018-10-16T06:34:55.636Z,1011.31
2018-10-16T06:35:55.632Z,1011.32
2018-10-16T06:36:55.632Z,1011.35
2018-10-16T06:37:55.627Z,1011.32
2018-10-16T06:38:55.652Z,1011.34
2018-10-16T06:39:55.613Z,1011.33
2018-10-16T06:40:55.723Z,1011.32
2018-10-16T06:41:55.605Z,1011.31
2018-10-16T06:42:55.598Z,1011.34
2018-10-16T06:43:55.654Z,1011.34
2018-10-16T06:44:55.605Z,1011.36
2018-10-16T06:45:55.592Z,1011.37
2018-10-16T06:46:55.577Z,1011.37
2018-10-16T06:47:55.684Z,1011.38
2018-10-16T06:48:55.869Z,1011.41
2018-10-16T06:49:55.563Z,1011.43
2018-10-16T06:50:55.565Z,1011.39
2018-10-16T06:51:56.380Z,1011.40
2018-10-16T06:52:55.556Z,1011.42
2018-10-16T06:53:55.565Z,1011.46
2018-10-16T06:54:55.576Z,1011.43
2018-10-16T06:55:55.535Z,1011.44
2018-10-16T06:56:55.535Z,1011.42
2018-10-16T06:57:55.529Z,1011.45
2018-10-16T06:58:55.523Z,1011.48
2018-10-16T06:59:55.519Z,1011.45
2018-10-16T07:00:55.513Z,1011.44
2018-10-16T07:01:55.513Z,1011.43
2018-10-16T07:02:55.502Z,1011.44
2018-10-16T07:03:55.510Z,1011.43
2018-10-16T07:04:55.501Z,1011.41
2018-10-16T07:05:55.492Z,1011.44
2018-10-16T07:06:55.596Z,1011.45
2018-10-16T07:07:55.483Z,1011.46
2018-10-16T07:08:55.478Z,1011.42
2018-10-16T07:09:55.471Z,1011.44
2018-10-16T07:10:55.470Z,1011.44
2018-10-16T07:11:55.465Z,1011.46
2018-10-16T07:12:55.477Z,1011.49
2018-10-16T07:13:55.449Z,1011.49
2018-10-16T07:14:55.461Z,1011.53
2018-10-16T07:15:55.451Z,1011.52
2018-10-16T07:16:55.466Z,1011.51
2018-10-16T07:17:55.468Z,1011.54
2018-10-16T07:18:55.427Z,1011.59
2018-10-16T07:19:55.420Z,1011.55
2018-10-16T07:20:55.431Z,1011.61
2018-10-16T07:21:55.415Z,1011.66
2018-10-16T07:22:55.411Z,1011.64
2018-10-16T07:23:55.438Z,1011.65
2018-10-16T07:24:55.901Z,1011.61
2018-10-16T07:25:55.410Z,1011.63
2018-10-16T07:26:55.422Z,1011.64
2018-10-16T07:27:55.388Z,1011.64
2018-10-16T07:28:55.379Z,1011.66
2018-10-16T07:29:55.388Z,1011.67
2018-10-16T07:30:55.386Z,1011.68
2018-10-16T07:31:55.364Z,1011.70
2018-10-16T07:32:55.356Z,1011.72
2018-10-16T07:33:55.355Z,1011.69
2018-10-16T07:34:55.363Z,1011.69
2018-10-16T07:35:55.342Z,1011.69
2018-10-16T07:36:55.342Z,1011.71
2018-10-16T07:37:55.412Z,1011.70
2018-10-16T07:38:55.435Z,1011.67
2018-10-16T07:39:55.378Z,1011.68
2018-10-16T07:40:55.908Z,1011.70
2018-10-16T07:41:55.313Z,1011.71
2018-10-16T07:42:55.312Z,1011.70
2018-10-16T07:43:55.311Z,1011.69
2018-10-16T07:44:55.306Z,1011.70
2018-10-16T07:45:55.298Z,1011.69
2018-10-16T07:46:55.298Z,1011.71
2018-10-16T07:47:55.288Z,1011.70
2018-10-16T07:48:55.278Z,1011.70
2018-10-16T07:49:55.282Z,1011.70
2018-10-16T07:50:55.273Z,1011.71
2018-10-16T07:51:55.268Z,1011.72
2018-10-16T07:52:55.265Z,1011.73
2018-10-16T07:53:55.256Z,1011.73
2018-10-16T07:54:55.249Z,1011.72
2018-10-16T07:55:55.250Z,1011.71
2018-10-16T07:56:55.263Z,1011.76
2018-10-16T07:57:55.240Z,1011.76
2018-10-16T07:58:55.238Z,1011.81
2018-10-16T07:59:55.230Z,1011.79
2018-10-16T08:00:55.223Z,1011.81
2018-10-16T08:01:55.225Z,1011.78
2018-10-16T08:02:55.210Z,1011.85
2018-10-16T08:03:55.208Z,1011.87
2018-10-16T08:04:55.214Z,1011.86
2018-10-16T08:05:55.200Z,1011.84
2018-10-16T08:06:55.199Z,1011.86
2018-10-16T08:07:55.201Z,1011.85
2018-10-16T08:08:55.186Z,1011.86
2018-10-16T08:09:55.185Z,1011.86
2018-10-16T08:10:55.176Z,1011.84
2018-10-16T08:11:55.175Z,1011.87
2018-10-16T08:12:55.168Z,1011.89
2018-10-16T08:13:55.201Z,1011.91
2018-10-16T08:14:55.162Z,1011.89
2018-10-16T08:15:55.152Z,1011.88
2018-10-16T08:16:55.193Z,1011.87
2018-10-16T08:17:55.144Z,1011.85
2018-10-16T08:18:55.149Z,1011.84
2018-10-16T08:19:55.143Z,1011.84
2018-10-16T08:20:55.142Z,1011.85
2018-10-16T08:21:55.130Z,1011.87
2018-10-16T08:22:55.127Z,1011.87
2018-10-16T08:23:55.129Z,1011.89
2018-10-16T08:24:55.112Z,1011.84
2018-10-16T08:25:55.117Z,1011.84
2018-10-16T08:26:55.165Z,1011.86
2018-10-16T08:27:55.108Z,1011.83
2018-10-16T08:28:55.092Z,1011.87
2018-10-16T08:29:55.169Z,1011.90
2018-10-16T08:30:55.087Z,1011.88
2018-10-16T08:31:55.083Z,1011.88
2018-10-16T08:32:55.085Z,1011.88
2018-10-16T08:33:55.121Z,1011.90
2018-10-16T08:34:55.077Z,1011.87
2018-10-16T08:35:55.085Z,1011.87
2018-10-16T08:36:55.120Z,1011.86
2018-10-16T08:37:55.060Z,1011.88
2018-10-16T08:38:55.056Z,1011.92
2018-10-16T08:39:55.057Z,1011.91
2018-10-16T08:40:55.056Z,1011.92
2018-10-16T08:41:55.066Z,1011.90
2018-10-16T08:42:55.039Z,1011.92
2018-10-16T08:43:55.037Z,1011.89
2018-10-16T08:44:55.136Z,1011.93
2018-10-16T08:45:55.026Z,1011.93
2018-10-16T08:46:55.025Z,1011.97
2018-10-16T08:47:55.029Z,1011.96
2018-10-16T08:48:55.017Z,1011.92
2018-10-16T08:49:55.022Z,1011.94
2018-10-16T08:50:55.031Z,1011.94
2018-10-16T08:51:55.020Z,1011.93
2018-10-16T08:52:55.016Z,1011.93
2018-10-16T08:53:55.056Z,1011.95
2018-10-16T08:54:55.070Z,1011.93
2018-10-16T08:55:55.009Z,1011.95
2018-10-16T08:56:55.006Z,1011.99
2018-10-16T08:57:55.010Z,1012.00
2018-10-16T08:58:55.012Z,1012.01
2018-10-16T08:59:55.011Z,1012.02
2018-10-16T09:00:55.015Z,1012.03
2018-10-16T09:01:55.010Z,1012.02
2018-10-16T09:02:55.013Z,1012.06
2018-10-16T09:03:55.011Z,1012.04
2018-10-16T09:04:55.007Z,1012.05
2018-10-16T09:05:55.961Z,1012.04
2018-10-16T09:06:55.111Z,1012.07
2018-10-16T09:07:55.035Z,1012.05
2018-10-16T09:08:55.025Z,1012.11
2018-10-16T09:09:55.023Z,1012.11
2018-10-16T09:10:55.026Z,1012.17
2018-10-16T09:11:55.027Z,1012.15
2018-10-16T09:12:55.029Z,1012.15
2018-10-16T09:13:55.072Z,1012.17
2018-10-16T09:14:55.044Z,1012.18
2018-10-16T09:15:55.037Z,1012.17
2018-10-16T09:16:55.037Z,1012.18
2018-10-16T09:17:55.042Z,1012.16
2018-10-16T09:18:55.044Z,1012.18
2018-10-16T09:19:55.054Z,1012.15
2018-10-16T09:20:55.971Z,1012.18
2018-10-16T09:21:55.055Z,1012.16
2018-10-16T09:22:55.062Z,1012.17
2018-10-16T09:23:55.065Z,1012.16
2018-10-16T09:24:55.086Z,1012.16
2018-10-16T09:25:55.066Z,1012.19
2018-10-16T09:26:55.070Z,1012.19
2018-10-16T09:27:55.076Z,1012.19
2018-10-16T09:28:55.085Z,1012.17
2018-10-16T09:29:55.082Z,1012.15
2018-10-16T09:30:55.116Z,1012.22
2018-10-16T09:31:55.093Z,1012.20
2018-10-16T09:32:55.103Z,1012.23
2018-10-16T09:33:55.097Z,1012.24
2018-10-16T09:34:55.104Z,1012.26
2018-10-16T09:35:55.106Z,1012.28
2018-10-16T09:36:55.112Z,1012.28
2018-10-16T09:37:55.159Z,1012.30
2018-10-16T09:38:55.131Z,1012.30
2018-10-16T09:39:55.135Z,1012.33
2018-10-16T09:40:55.131Z,1012.35
2018-10-16T09:41:55.130Z,1012.29
2018-10-16T09:42:55.138Z,1012.33
2018-10-16T09:43:55.176Z,1012.30
2018-10-16T09:44:55.151Z,1012.32
2018-10-16T09:45:55.156Z,1012.29
2018-10-16T09:46:55.157Z,1012.31
2018-10-16T09:47:55.160Z,1012.31
2018-10-16T09:48:55.171Z,1012.35
2018-10-16T09:49:55.170Z,1012.38
2018-10-16T09:50:55.176Z,1012.37
2018-10-16T09:51:55.184Z,1012.39
2018-10-16T09:52:55.186Z,1012.38
2018-10-16T09:53:55.197Z,1012.37
2018-10-16T09:54:55.207Z,1012.34
2018-10-16T09:55:55.204Z,1012.36
2018-10-16T09:56:55.203Z,1012.37
2018-10-16T09:57:55.209Z,1012.39
2018-10-16T09:58:55.221Z,1012.42
2018-10-16T09:59:55.223Z,1012.40
2018-10-16T10:00:55.311Z,1012.43
2018-10-16T10:01:55.233Z,1012.43
2018-10-16T10:02:55.237Z,1012.40
2018-10-16T10:03:55.240Z,1012.45
2018-10-16T10:04:55.246Z,1012.43
2018-10-16T10:05:55.257Z,1012.43
2018-10-16T10:06:55.259Z,1012.42
2018-10-16T10:07:55.268Z,1012.39
2018-10-16T10:08:55.272Z,1012.43
2018-10-16T10:09:55.279Z,1012.40
2018-10-16T10:10:55.314Z,1012.38
2018-10-16T10:11:55.287Z,1012.33
2018-10-16T10:12:55.304Z,1012.39
2018-10-16T10:13:55.303Z,1012.36
2018-10-16T10:14:55.306Z,1012.38
2018-10-16T10:15:55.309Z,1012.34
2018-10-16T10:16:55.316Z,1012.32
2018-10-16T10:17:55.314Z,1012.34
2018-10-16T10:18:55.324Z,1012.36
2018-10-16T10:19:55.328Z,1012.37
2018-10-16T10:20:55.332Z,1012.42
2018-10-16T10:21:55.338Z,1012.41
2018-10-16T10:22:55.346Z,1012.40
2018-10-16T10:23:55.352Z,1012.38
2018-10-16T10:24:55.366Z,1012.39
2018-10-16T10:25:55.367Z,1012.40
2018-10-16T10:26:55.388Z,1012.38
2018-10-16T10:27:55.373Z,1012.37
2018-10-16T10:28:55.378Z,1012.41
2018-10-16T10:29:55.385Z,1012.40
2018-10-16T10:30:55.390Z,1012.40
2018-10-16T10:31:55.427Z,1012.42
2018-10-16T10:32:55.396Z,1012.42
2018-10-16T10:33:55.402Z,1012.42
2018-10-16T10:34:55.412Z,1012.38
2018-10-16T10:35:55.419Z,1012.42
2018-10-16T10:36:55.419Z,1012.40
2018-10-16T10:37:55.424Z,1012.41
2018-10-16T10:38:55.434Z,1012.40
2018-10-16T10:39:55.440Z,1012.39
2018-10-16T10:40:55.467Z,1012.38
2018-10-16T10:41:55.449Z,1012.41
2018-10-16T10:42:55.455Z,1012.35
2018-10-16T10:43:55.456Z,1012.36
2018-10-16T10:44:55.473Z,1012.35
2018-10-16T10:45:55.469Z,1012.30
2018-10-16T10:46:55.472Z,1012.33
2018-10-16T10:47:55.473Z,1012.35
2018-10-16T10:48:55.480Z,1012.37
2018-10-16T10:49:55.581Z,1012.33
2018-10-16T10:50:55.697Z,1012.34
2018-10-16T10:51:55.497Z,1012.33
2018-10-16T10:52:55.503Z,1012.34
2018-10-16T10:53:55.509Z,1012.32
2018-10-16T10:54:55.513Z,1012.30
2018-10-16T10:55:55.518Z,1012.30
2018-10-16T10:56:55.667Z,1012.30
2018-10-16T10:57:55.557Z,1012.26
2018-10-16T10:58:55.535Z,1012.31
2018-10-16T10:59:55.544Z,1012.29
2018-10-16T11:00:55.552Z,1012.25
2018-10-16T11:01:55.550Z,1012.29
2018-10-16T11:02:55.619Z,1012.28
2018-10-16T11:03:55.567Z,1012.32
2018-10-16T11:04:55.592Z,1012.28
2018-10-16T11:05:55.574Z,1012.27
2018-10-16T11:06:55.577Z,1012.25
2018-10-16T11:07:55.586Z,1012.25
2018-10-16T11:08:55.598Z,1012.24
2018-10-16T11:09:55.607Z,1012.26
2018-10-16T11:10:55.604Z,1012.22
2018-10-16T11:11:55.608Z,1012.24
2018-10-16T11:12:55.612Z,1012.24
2018-10-16T11:13:55.620Z,1012.22
2018-10-16T11:14:55.662Z,1012.25
2018-10-16T11:15:55.631Z,1012.21
2018-10-16T11:16:55.635Z,1012.23
2018-10-16T11:17:55.655Z,1012.19
2018-10-16T11:18:55.653Z,1012.16
2018-10-16T11:19:55.656Z,1012.25
2018-10-16T11:20:55.697Z,1012.20
2018-10-16T11:21:55.663Z,1012.18
2018-10-16T11:22:55.669Z,1012.19
2018-10-16T11:23:55.673Z,1012.17
2018-10-16T11:24:55.682Z,1012.15
2018-10-16T11:25:55.693Z,1012.16
2018-10-16T11:26:55.740Z,1012.17
2018-10-16T11:27:55.697Z,1012.20
2018-10-16T11:28:55.698Z,1012.16
2018-10-16T11:29:55.706Z,1012.18
2018-10-16T11:30:55.711Z,1012.19
2018-10-16T11:31:55.720Z,1012.18
2018-10-16T11:32:55.734Z,1012.14
2018-10-16T11:33:55.730Z,1012.19
2018-10-16T11:34:55.738Z,1012.18
2018-10-16T11:35:55.739Z,1012.15
2018-10-16T11:36:55.802Z,1012.17
2018-10-16T11:37:55.755Z,1012.16
2018-10-16T11:38:55.792Z,1012.16
2018-10-16T11:39:55.764Z,1012.15
2018-10-16T11:40:55.767Z,1012.14
2018-10-16T11:41:55.776Z,1012.17
2018-10-16T11:42:55.780Z,1012.16
2018-10-16T11:43:55.786Z,1012.13
2018-10-16T11:44:55.798Z,1012.13
2018-10-16T11:45:55.795Z,1012.13
2018-10-16T11:46:55.798Z,1012.16
2018-10-16T11:47:55.812Z,1012.20
2018-10-16T11:48:55.819Z,1012.18
2018-10-16T11:49:55.845Z,1012.17
2018-10-16T11:50:55.820Z,1012.16
2018-10-16T11:51:55.873Z,1012.19
2018-10-16T11:52:55.834Z,1012.17
2018-10-16T11:53:55.838Z,1012.19
2018-10-16T11:54:55.844Z,1012.17
2018-10-16T11:55:55.900Z,1012.18
2018-10-16T11:56:55.854Z,1012.21
2018-10-16T11:57:55.861Z,1012.20
2018-10-16T11:58:55.886Z,1012.16
2018-10-16T11:59:55.999Z,1012.17
2018-10-16T12:00:55.890Z,1012.17
2018-10-16T12:01:55.937Z,1012.17
2018-10-16T12:02:55.891Z,1012.19
2018-10-16T12:03:55.894Z,1012.18
2018-10-16T12:04:55.905Z,1012.15
2018-10-16T12:05:55.914Z,1012.17
2018-10-16T12:06:55.924Z,1012.19
2018-10-16T12:07:55.950Z,1012.19
2018-10-16T12:08:55.919Z,1012.17
2018-10-16T12:09:55.928Z,1012.20
2018-10-16T12:10:55.965Z,1012.18
2018-10-16T12:11:55.935Z,1012.20
2018-10-16T12:12:55.958Z,1012.18
2018-10-16T12:13:55.975Z,1012.18
2018-10-16T12:14:55.948Z,1012.16
2018-10-16T12:15:55.955Z,1012.18
2018-10-16T12:16:56.075Z,1012.12
2018-10-16T12:17:55.966Z,1012.15
2018-10-16T12:18:55.992Z,1012.16
2018-10-16T12:19:56.055Z,1012.18
2018-10-16T12:20:56.008Z,1012.16
2018-10-16T12:21:55.981Z,1012.15
2018-10-16T12:22:55.993Z,1012.15
2018-10-16T12:23:56.003Z,1012.15
2018-10-16T12:24:56.056Z,1012.10
2018-10-16T12:25:56.003Z,1012.15
2018-10-16T12:26:56.069Z,1012.14
2018-10-16T12:27:56.016Z,1012.13
2018-10-16T12:28:56.057Z,1012.16
2018-10-16T12:29:56.026Z,1012.12
2018-10-16T12:30:56.038Z,1012.11
2018-10-16T12:31:56.036Z,1012.13
2018-10-16T12:32:56.058Z,1012.11
2018-10-16T12:33:56.045Z,1012.10
2018-10-16T12:34:56.055Z,1012.09
2018-10-16T12:35:56.062Z,1012.08
2018-10-16T12:36:56.091Z,1012.08
2018-10-16T12:37:56.062Z,1012.09
2018-10-16T12:38:56.117Z,1012.07
2018-10-16T12:39:56.096Z,1012.14
2018-10-16T12:40:56.097Z,1012.13
2018-10-16T12:41:56.172Z,1012.15
2018-10-16T12:42:56.179Z,1012.11
2018-10-16T12:43:56.094Z,1012.08
2018-10-16T12:44:56.147Z,1012.10
2018-10-16T12:45:56.120Z,1012.15
2018-10-16T12:46:56.643Z,1012.16
2018-10-16T12:47:56.111Z,1012.15
2018-10-16T12:48:56.116Z,1012.13
2018-10-16T12:49:56.130Z,1012.11
2018-10-16T12:50:56.145Z,1012.12
2018-10-16T12:51:56.126Z,1012.11
2018-10-16T12:52:56.137Z,1012.07
2018-10-16T12:53:56.207Z,1012.09
2018-10-16T12:54:56.143Z,1012.09
2018-10-16T12:55:56.210Z,1012.11
2018-10-16T12:56:57.291Z,1012.13
2018-10-16T12:57:57.250Z,1012.14
2018-10-16T12:58:56.193Z,1012.10
2018-10-16T12:59:56.222Z,1012.13
2018-10-16T13:00:56.166Z,1012.10
2018-10-16T13:01:56.222Z,1012.11
2018-10-16T13:02:56.270Z,1012.10
2018-10-16T13:03:56.178Z,1012.11
2018-10-16T13:04:56.478Z,1012.07
2018-10-16T13:05:56.191Z,1012.13
2018-10-16T13:06:56.196Z,1012.11
2018-10-16T13:07:56.200Z,1012.11
2018-10-16T13:08:56.252Z,1012.13
2018-10-16T13:09:56.211Z,1012.09
2018-10-16T13:10:56.255Z,1012.10
2018-10-16T13:11:56.215Z,1012.11
2018-10-16T13:12:56.212Z,1012.10
2018-10-16T13:13:56.236Z,1012.08
2018-10-16T13:14:56.220Z,1012.09
2018-10-16T13:15:56.257Z,1012.11
2018-10-16T13:16:56.324Z,1012.05
2018-10-16T13:17:56.253Z,1012.09
2018-10-16T13:18:56.232Z,1012.09
2018-10-16T13:19:56.329Z,1012.06
2018-10-16T13:20:56.262Z,1012.06
2018-10-16T13:21:56.313Z,1012.03
2018-10-16T13:22:56.304Z,1012.05
2018-10-16T13:23:56.260Z,1012.03
2018-10-16T13:24:56.255Z,1012.05
2018-10-16T13:25:56.275Z,1012.02
2018-10-16T13:26:56.275Z,1012.00
2018-10-16T13:27:56.295Z,1012.00
2018-10-16T13:28:56.295Z,1012.02
2018-10-16T13:29:56.336Z,1012.02
2018-10-16T13:30:56.290Z,1011.95
2018-10-16T13:31:56.293Z,1011.97
2018-10-16T13:32:56.283Z,1011.95
2018-10-16T13:33:56.335Z,1011.95
2018-10-16T13:34:56.346Z,1011.99
2018-10-16T13:35:56.294Z,1012.00
2018-10-16T13:36:56.325Z,1011.99
2018-10-16T13:37:56.318Z,1011.97
2018-10-16T13:38:56.300Z,1011.97
2018-10-16T13:39:56.358Z,1011.96
2018-10-16T13:40:56.334Z,1011.95
2018-10-16T13:41:56.313Z,1011.97
2018-10-16T13:42:56.401Z,1011.98
2018-10-16T13:43:56.344Z,1011.95
2018-10-16T13:44:56.325Z,1012.00
2018-10-16T13:45:56.355Z,1012.04
2018-10-16T13:46:56.336Z,1012.00
2018-10-16T13:47:56.329Z,1012.06
2018-10-16T13:48:56.333Z,1012.05
2018-10-16T13:49:56.390Z,1012.03
2018-10-16T13:50:56.337Z,1011.99
2018-10-16T13:51:56.391Z,1012.02
2018-10-16T13:52:56.341Z,1011.98
2018-10-16T13:53:56.344Z,1011.96
2018-10-16T13:54:56.349Z,1012.01
2018-10-16T13:55:56.365Z,1012.01
2018-10-16T13:56:56.367Z,1012.02
2018-10-16T13:57:56.423Z,1012.04
2018-10-16T13:58:56.363Z,1012.03
2018-10-16T13:59:56.362Z,1012.05
2018-10-16T14:00:56.362Z,1012.02
2018-10-16T14:01:56.434Z,1012.07
2018-10-16T14:02:56.373Z,1012.03
2018-10-16T14:03:56.385Z,1012.05
2018-10-16T14:04:56.439Z,1012.03
2018-10-16T14:05:56.377Z,1012.04
2018-10-16T14:06:56.377Z,1012.04
2018-10-16T14:07:56.477Z,1012.08
2018-10-16T14:08:56.383Z,1012.08
2018-10-16T14:09:56.394Z,1012.04
2018-10-16T14:10:56.388Z,1011.99
2018-10-16T14:11:56.399Z,1011.99
2018-10-16T14:12:56.393Z,1011.98
2018-10-16T14:13:56.395Z,1011.98
2018-10-16T14:14:56.398Z,1011.98
2018-10-16T14:15:56.414Z,1012.00
2018-10-16T14:16:56.451Z,1012.01
2018-10-16T14:17:56.442Z,1012.02
2018-10-16T14:18:56.405Z,1012.01
2018-10-16T14:19:56.464Z,1012.00
2018-10-16T14:20:56.408Z,1012.01
2018-10-16T14:21:56.528Z,1012.01
2018-10-16T14:22:56.414Z,1012.04
2018-10-16T14:23:56.444Z,1012.03
2018-10-16T14:24:56.433Z,1012.04
2018-10-16T14:25:56.449Z,1012.01
2018-10-16T14:26:56.414Z,1012.01
2018-10-16T14:27:56.421Z,1012.03
2018-10-16T14:28:56.415Z,1012.02
2018-10-16T14:29:56.428Z,1012.04
2018-10-16T14:30:56.423Z,1012.02
2018-10-16T14:31:56.496Z,1011.99
2018-10-16T14:32:56.423Z,1012.04
2018-10-16T14:33:56.624Z,1012.01
2018-10-16T14:34:56.425Z,1012.04
2018-10-16T14:35:56.431Z,1012.02
2018-10-16T14:36:56.426Z,1012.03
2018-10-16T14:37:56.470Z,1011.99
2018-10-16T14:38:56.428Z,1012.05
2018-10-16T14:39:56.481Z,1012.03
2018-10-16T14:40:56.436Z,1012.05
2018-10-16T14:41:56.434Z,1012.01
2018-10-16T14:42:56.437Z,1012.05
2018-10-16T14:43:56.479Z,1012.02
2018-10-16T14:44:56.438Z,1012.00
2018-10-16T14:45:56.444Z,1012.02
2018-10-16T14:46:56.440Z,1012.01
2018-10-16T14:47:56.488Z,1012.00
2018-10-16T14:48:56.439Z,1012.01
2018-10-16T14:49:56.467Z,1011.99
2018-10-16T14:50:56.442Z,1011.98
2018-10-16T14:51:56.453Z,1012.03
2018-10-16T14:52:56.448Z,1011.96
2018-10-16T14:53:56.446Z,1011.98
2018-10-16T14:54:56.444Z,1011.98
2018-10-16T14:55:56.504Z,1011.98
2018-10-16T14:56:56.526Z,1011.96
2018-10-16T14:57:56.473Z,1011.95
2018-10-16T14:58:56.446Z,1011.97
2018-10-16T14:59:56.450Z,1011.97
2018-10-16T15:00:56.449Z,1011.99
2018-10-16T15:01:56.505Z,1011.97
2018-10-16T15:02:56.445Z,1012.00
2018-10-16T15:03:56.455Z,1011.98
2018-10-16T15:04:56.457Z,1011.96
2018-10-16T15:05:56.451Z,1011.95
2018-10-16T15:06:56.454Z,1011.93
2018-10-16T15:07:56.468Z,1011.94
2018-10-16T15:08:56.449Z,1011.92
2018-10-16T15:09:56.557Z,1011.93
2018-10-16T15:10:56.455Z,1011.94
2018-10-16T15:11:56.466Z,1011.92
2018-10-16T15:12:56.452Z,1011.92
2018-10-16T15:13:56.503Z,1011.90
2018-10-16T15:14:56.453Z,1011.87